createdAt,value
2019-05-15T00:01:54.615Z,5.99
2019-05-15T00:04:30.558Z,6.00
2019-05-15T00:07:08.813Z,5.97
2019-05-15T00:09:44.163Z,5.95
2019-05-15T00:12:20.273Z,5.95
2019-05-15T00:14:58.088Z,5.90
2019-05-15T00:17:33.925Z,5.92
2019-05-15T00:20:10.600Z,5.89
2019-05-15T00:22:48.410Z,5.92
2019-05-15T00:25:24.263Z,5.92
2019-05-15T00:28:00.322Z,5.91
2019-05-15T00:30:38.489Z,5.90
2019-05-15T00:33:14.987Z,5.93
2019-05-15T00:35:50.945Z,5.95
2019-05-15T00:38:27.991Z,5.96
2019-05-15T00:41:04.200Z,5.95
2019-05-15T00:43:40.158Z,5.97
2019-05-15T00:46:18.325Z,5.93
2019-05-15T00:48:54.220Z,5.99
2019-05-15T00:51:30.288Z,6.00
2019-05-15T00:54:08.403Z,5.97
2019-05-15T00:56:44.587Z,5.96
2019-05-15T00:59:26.347Z,5.99
2019-05-15T01:01:59.409Z,5.95
2019-05-15T01:04:35.593Z,5.95
2019-05-15T01:07:11.552Z,5.97
2019-05-15T01:09:48.728Z,5.96
2019-05-15T01:12:24.786Z,5.93
2019-05-15T01:15:01.863Z,5.92
2019-05-15T01:17:39.776Z,5.93
2019-05-15T01:20:15.731Z,5.92
2019-05-15T01:22:51.676Z,5.91
2019-05-15T01:25:28.082Z,5.90
2019-05-15T01:28:04.211Z,5.92
2019-05-15T01:30:41.183Z,5.93
2019-05-15T01:33:18.923Z,5.96
2019-05-15T01:35:54.797Z,5.97
2019-05-15T01:38:30.807Z,5.93
2019-05-15T01:41:06.764Z,5.89
2019-05-15T01:43:43.844Z,5.93
2019-05-15T01:46:19.787Z,5.93
2019-05-15T01:48:55.759Z,5.95
2019-05-15T01:51:31.714Z,6.00
2019-05-15T01:54:09.113Z,6.00
2019-05-15T01:56:49.226Z,5.99
2019-05-15T01:59:24.292Z,5.97
2019-05-15T02:02:00.237Z,5.97
2019-05-15T02:04:36.195Z,5.97
2019-05-15T02:07:12.156Z,6.01
2019-05-15T02:09:49.238Z,6.03
2019-05-15T02:12:28.439Z,6.03
2019-05-15T02:15:08.660Z,6.07
2019-05-15T02:17:44.778Z,6.07
2019-05-15T02:20:20.661Z,6.09
2019-05-15T02:22:59.017Z,6.10
2019-05-15T02:25:34.402Z,6.09
2019-05-15T02:28:10.365Z,6.10
2019-05-15T02:30:50.028Z,6.09
2019-05-15T02:33:24.430Z,6.09
2019-05-15T02:36:00.401Z,6.10
2019-05-15T02:38:40.411Z,6.09
2019-05-15T02:41:14.292Z,6.12
2019-05-15T02:43:50.363Z,6.14
2019-05-15T02:46:26.362Z,6.14
2019-05-15T02:49:02.270Z,6.14
2019-05-15T02:51:40.018Z,6.16
2019-05-15T02:54:19.305Z,6.14
2019-05-15T02:56:53.872Z,6.12
2019-05-15T02:59:29.837Z,6.11
2019-05-15T03:02:05.887Z,6.07
2019-05-15T03:04:41.849Z,6.10
2019-05-15T03:07:19.307Z,6.11
2019-05-15T03:09:55.480Z,6.14
2019-05-15T03:12:31.442Z,6.11
2019-05-15T03:15:09.630Z,6.10
2019-05-15T03:17:45.107Z,6.09
2019-05-15T03:20:21.054Z,6.11
2019-05-15T03:22:59.691Z,6.15
2019-05-15T03:25:34.713Z,6.13
2019-05-15T03:28:11.141Z,6.12
2019-05-15T03:31:17.833Z,6.10
2019-05-15T03:33:29.968Z,6.08
2019-05-15T03:36:03.769Z,6.11
2019-05-15T03:38:40.020Z,6.11
2019-05-15T03:41:19.175Z,6.09
2019-05-15T03:43:53.671Z,6.12
2019-05-15T03:46:29.629Z,6.12
2019-05-15T03:49:08.440Z,6.12
2019-05-15T03:51:45.932Z,6.11
2019-05-15T03:54:20.972Z,6.06
2019-05-15T03:56:58.528Z,6.04
2019-05-15T03:59:34.727Z,6.08
2019-05-15T04:02:10.823Z,6.08
2019-05-15T04:04:49.829Z,6.09
2019-05-15T04:07:24.555Z,6.08
2019-05-15T04:10:00.525Z,6.10
2019-05-15T04:12:39.845Z,6.10
2019-05-15T04:15:14.471Z,6.13
2019-05-15T04:17:50.434Z,6.14
2019-05-15T04:20:29.467Z,6.15
2019-05-15T04:23:04.083Z,6.16
2019-05-15T04:25:40.478Z,6.18
2019-05-15T04:28:19.385Z,6.18
2019-05-15T04:30:55.336Z,6.22
2019-05-15T04:33:31.293Z,6.19
2019-05-15T04:36:09.790Z,6.19
2019-05-15T04:38:44.943Z,6.19
2019-05-15T04:41:20.893Z,6.19
2019-05-15T04:43:59.563Z,6.16
2019-05-15T04:46:34.436Z,6.22
2019-05-15T04:49:10.821Z,6.22
2019-05-15T04:51:49.816Z,6.23
2019-05-15T04:54:24.564Z,6.24
2019-05-15T04:57:00.527Z,6.22
2019-05-15T04:59:38.985Z,6.20
2019-05-15T05:02:24.208Z,6.21
2019-05-15T05:04:51.865Z,6.22
2019-05-15T05:07:29.585Z,6.28
2019-05-15T05:10:09.156Z,6.26
2019-05-15T05:12:43.944Z,6.33
2019-05-15T05:15:19.903Z,6.31
2019-05-15T05:17:58.424Z,6.36
2019-05-15T05:20:33.658Z,6.41
2019-05-15T05:23:09.602Z,6.41
2019-05-15T05:25:45.763Z,6.42
2019-05-15T05:28:21.721Z,6.39
2019-05-15T05:30:58.808Z,6.40
2019-05-15T05:33:35.372Z,6.39
2019-05-15T05:36:11.430Z,6.43
2019-05-15T05:38:49.312Z,6.42
2019-05-15T05:41:25.098Z,6.43
2019-05-15T05:44:01.039Z,6.46
2019-05-15T05:46:39.534Z,6.49
2019-05-15T05:49:14.910Z,6.48
2019-05-15T05:51:50.865Z,6.48
2019-05-15T05:54:28.832Z,6.48
2019-05-15T05:57:04.421Z,6.48
2019-05-15T05:59:51.187Z,6.52
2019-05-15T06:02:48.093Z,6.49
2019-05-15T06:05:31.533Z,6.48
2019-05-15T06:08:19.862Z,6.48
2019-05-15T06:11:05.677Z,6.53
2019-05-15T06:13:53.880Z,6.54
2019-05-15T06:16:32.708Z,6.59
2019-05-15T06:19:08.657Z,6.60
2019-05-15T06:21:54.569Z,6.61
2019-05-15T06:24:22.407Z,6.68
2019-05-15T06:26:58.727Z,6.68
2019-05-15T06:29:34.847Z,6.71
2019-05-15T06:32:10.804Z,6.74
2019-05-15T06:34:48.495Z,6.72
2019-05-15T06:37:24.664Z,6.72
2019-05-15T06:40:00.606Z,6.70
2019-05-15T06:42:38.953Z,6.69
2019-05-15T06:45:14.580Z,6.74
2019-05-15T06:47:51.551Z,6.70
2019-05-15T06:50:38.033Z,6.68
2019-05-15T06:53:13.189Z,6.69
2019-05-15T06:55:49.353Z,6.64
2019-05-15T06:58:25.426Z,6.65
2019-05-15T07:01:01.378Z,6.64
2019-05-15T07:03:39.221Z,6.68
2019-05-15T07:06:15.030Z,6.73
2019-05-15T07:08:50.987Z,6.79
2019-05-15T07:11:28.197Z,6.77
2019-05-15T07:14:04.846Z,6.79
2019-05-15T07:16:40.904Z,6.78
2019-05-15T07:19:19.022Z,6.81
2019-05-15T07:21:54.544Z,6.79
2019-05-15T07:24:30.501Z,6.82
2019-05-15T07:27:07.996Z,6.83
2019-05-15T07:29:44.065Z,6.82
2019-05-15T07:32:21.131Z,6.79
2019-05-15T07:34:57.886Z,6.81
2019-05-15T07:37:34.091Z,6.84
2019-05-15T07:40:10.808Z,6.81
2019-05-15T07:42:49.036Z,6.83
2019-05-15T07:45:24.604Z,6.84
2019-05-15T07:48:00.574Z,6.82
2019-05-15T07:50:38.816Z,6.83
2019-05-15T07:53:14.210Z,6.86
2019-05-15T07:55:51.404Z,6.89
2019-05-15T07:58:28.494Z,6.90
2019-05-15T08:01:05.503Z,6.90
2019-05-15T08:03:55.549Z,6.91
2019-05-15T08:06:19.424Z,6.90
2019-05-15T08:08:55.392Z,6.91
2019-05-15T08:11:31.341Z,6.91
2019-05-15T08:14:08.925Z,6.98
2019-05-15T08:16:45.103Z,7.01
2019-05-15T08:19:21.050Z,7.10
2019-05-15T08:21:58.175Z,7.05
2019-05-15T08:24:34.393Z,7.06
2019-05-15T08:27:10.280Z,7.04
2019-05-15T08:29:48.563Z,7.07
2019-05-15T08:32:24.003Z,7.10
2019-05-15T08:34:59.961Z,7.12
2019-05-15T08:37:38.308Z,7.12
2019-05-15T08:40:14.614Z,7.14
2019-05-15T08:42:57.047Z,7.26
2019-05-15T08:45:28.403Z,7.29
2019-05-15T08:48:04.657Z,7.25
2019-05-15T08:50:40.626Z,7.31
2019-05-15T08:53:18.968Z,7.31
2019-05-15T08:55:54.282Z,7.35
2019-05-15T08:58:30.337Z,7.35
2019-05-15T09:01:06.294Z,7.29
2019-05-15T09:03:42.238Z,7.35
2019-05-15T09:06:22.271Z,7.43
2019-05-15T09:08:58.343Z,7.48
2019-05-15T09:11:33.598Z,7.56
2019-05-15T09:14:09.493Z,7.53
2019-05-15T09:16:45.512Z,7.50
2019-05-15T09:19:21.456Z,7.46
2019-05-15T09:21:58.469Z,7.45
2019-05-15T09:24:34.711Z,7.45
2019-05-15T09:27:10.675Z,7.47
2019-05-15T09:29:48.411Z,7.48
2019-05-15T09:32:24.218Z,7.47
2019-05-15T09:35:00.177Z,7.45
2019-05-15T09:37:38.642Z,7.49
2019-05-15T09:40:15.001Z,7.51
2019-05-15T09:42:51.311Z,7.50
2019-05-15T09:45:28.604Z,7.51
2019-05-15T09:48:05.155Z,7.56
2019-05-15T09:50:41.224Z,7.57
2019-05-15T09:53:18.797Z,7.56
2019-05-15T09:55:54.891Z,7.59
2019-05-15T09:58:30.851Z,7.59
2019-05-15T10:01:08.545Z,7.61
2019-05-15T10:03:44.733Z,7.63
2019-05-15T10:06:20.998Z,7.70
2019-05-15T10:08:56.957Z,7.76
2019-05-15T10:11:32.870Z,7.76
2019-05-15T10:14:09.755Z,7.75
2019-05-15T10:16:48.124Z,7.76
2019-05-15T10:19:23.766Z,7.77
2019-05-15T10:21:59.843Z,7.78
2019-05-15T10:24:35.724Z,7.76
2019-05-15T10:27:11.687Z,7.76
2019-05-15T10:29:48.392Z,7.69
2019-05-15T10:32:24.579Z,7.69
2019-05-15T10:35:00.772Z,7.74
2019-05-15T10:37:38.993Z,7.75
2019-05-15T10:40:15.122Z,7.74
2019-05-15T10:42:51.149Z,7.72
2019-05-15T10:45:29.568Z,7.70
2019-05-15T10:48:05.183Z,7.70
2019-05-15T10:50:41.043Z,7.72
2019-05-15T10:53:18.879Z,7.71
2019-05-15T10:55:55.306Z,7.68
2019-05-15T10:58:31.253Z,7.66
2019-05-15T11:01:10.992Z,7.68
2019-05-15T11:03:44.948Z,7.64
2019-05-15T11:06:20.856Z,7.59
2019-05-15T11:08:58.390Z,7.66
2019-05-15T11:11:34.841Z,7.64
2019-05-15T11:14:10.733Z,7.64
2019-05-15T11:16:48.619Z,7.68
2019-05-15T11:19:24.336Z,7.67
2019-05-15T11:22:00.293Z,7.71
2019-05-15T11:24:38.499Z,7.64
2019-05-15T11:27:14.971Z,7.69
2019-05-15T11:29:50.922Z,7.76
2019-05-15T11:32:29.201Z,7.79
2019-05-15T11:35:06.288Z,7.75
2019-05-15T11:37:46.477Z,7.83
2019-05-15T11:40:20.873Z,7.88
2019-05-15T11:42:56.813Z,7.96
2019-05-15T11:45:32.977Z,7.95
2019-05-15T11:48:09.212Z,7.96
2019-05-15T11:50:45.108Z,7.97
2019-05-15T11:53:21.021Z,7.97
2019-05-15T11:55:56.969Z,7.98
2019-05-15T11:58:32.875Z,7.93
2019-05-15T12:01:08.831Z,7.99
2019-05-15T12:03:44.750Z,8.06
2019-05-15T12:06:22.952Z,8.10
2019-05-15T12:08:59.222Z,8.14
2019-05-15T12:11:37.917Z,8.08
2019-05-15T12:14:13.275Z,8.10
2019-05-15T12:17:05.116Z,8.11
2019-05-15T12:19:29.204Z,8.16
2019-05-15T12:22:04.481Z,8.15
2019-05-15T12:24:41.580Z,8.20
2019-05-15T12:27:18.362Z,8.18
2019-05-15T12:29:54.516Z,8.21
2019-05-15T12:32:36.038Z,8.17
2019-05-15T12:35:08.207Z,8.17
2019-05-15T12:37:44.124Z,8.16
2019-05-15T13:01:21.918Z,8.19
2019-05-15T13:03:58.060Z,8.23
2019-05-15T13:06:47.399Z,8.26
2019-05-15T13:09:11.588Z,8.22
2019-05-15T13:11:48.477Z,8.28
2019-05-15T13:14:24.609Z,8.28
2019-05-15T13:17:00.480Z,8.31
2019-05-15T13:19:38.680Z,8.31
2019-05-15T13:22:18.093Z,8.28
2019-05-15T13:24:51.593Z,8.29
2019-05-15T13:27:27.700Z,8.29
2019-05-15T13:30:04.539Z,8.32
2019-05-15T13:32:41.235Z,8.26
2019-05-15T13:35:18.408Z,8.29
2019-05-15T13:37:54.416Z,8.30
2019-05-15T13:40:37.126Z,8.27
2019-05-15T13:43:08.466Z,8.28
2019-05-15T13:45:44.612Z,8.24
2019-05-15T13:48:20.650Z,8.28
2019-05-15T13:50:58.796Z,8.32
2019-05-15T13:53:34.201Z,8.33
2019-05-15T13:56:10.152Z,8.36
2019-05-15T13:58:48.124Z,8.35
2019-05-15T14:01:23.693Z,8.31
2019-05-15T14:03:59.665Z,8.35
2019-05-15T14:06:37.816Z,8.31
2019-05-15T14:09:13.226Z,8.34
2019-05-15T14:11:49.782Z,8.34
2019-05-15T14:14:25.828Z,8.36
2019-05-15T14:17:01.748Z,8.36
2019-05-15T14:19:38.652Z,8.37
2019-05-15T14:22:14.734Z,8.36
2019-05-15T14:24:50.675Z,8.36
2019-05-15T14:27:29.004Z,8.41
2019-05-15T14:30:09.576Z,8.42
2019-05-15T14:32:48.256Z,8.36
2019-05-15T14:35:23.068Z,8.36
2019-05-15T14:38:06.357Z,8.38
2019-05-15T14:40:36.590Z,8.37
2019-05-15T14:43:12.604Z,8.39
2019-05-15T14:45:48.551Z,8.35
2019-05-15T14:48:24.788Z,8.34
2019-05-15T14:51:00.692Z,8.36
2019-05-15T14:53:38.569Z,8.36
2019-05-15T14:56:15.200Z,8.38
2019-05-15T14:58:51.233Z,8.42
2019-05-15T15:01:27.187Z,8.44
2019-05-15T15:04:04.157Z,8.44
2019-05-15T15:06:40.249Z,8.50
2019-05-15T15:09:16.288Z,8.50
2019-05-15T15:11:52.238Z,8.51
2019-05-15T15:14:28.582Z,8.54
2019-05-15T15:17:04.859Z,8.53
2019-05-15T15:19:40.842Z,8.54
2019-05-15T15:22:16.785Z,8.49
2019-05-15T15:24:52.699Z,8.54
2019-05-15T15:27:28.607Z,8.55
2019-05-15T15:30:09.170Z,8.54
2019-05-15T15:32:44.480Z,8.56
2019-05-15T15:35:20.387Z,8.53
2019-05-15T15:37:58.062Z,8.45
2019-05-15T15:40:34.122Z,8.48
2019-05-15T15:43:10.002Z,8.48
2019-05-15T15:45:48.445Z,8.47
2019-05-15T15:48:24.505Z,8.47
2019-05-15T15:51:00.433Z,8.45
2019-05-15T15:53:36.339Z,8.45
2019-05-15T15:56:13.916Z,8.48
2019-05-15T15:58:49.835Z,8.51
2019-05-15T16:01:27.780Z,8.51
2019-05-15T16:04:03.386Z,8.53
2019-05-15T16:06:39.290Z,8.52
2019-05-15T16:09:15.499Z,8.53
2019-05-15T16:11:53.196Z,8.52
2019-05-15T16:14:29.109Z,8.53
2019-05-15T16:17:05.375Z,8.55
2019-05-15T16:19:45.552Z,8.54
2019-05-15T16:22:28.365Z,8.52
2019-05-15T16:25:09.249Z,8.53
2019-05-15T16:27:43.840Z,8.57
2019-05-15T16:30:21.006Z,8.57
2019-05-15T16:33:03.038Z,8.55
2019-05-15T16:35:39.202Z,8.57
2019-05-15T16:38:16.117Z,8.56
2019-05-15T16:40:52.067Z,8.54
2019-05-15T16:43:28.567Z,8.56
2019-05-15T16:46:04.724Z,8.57
2019-05-15T16:48:42.516Z,8.56
2019-05-15T16:51:18.383Z,8.59
2019-05-15T16:53:54.329Z,8.60
2019-05-15T16:56:30.223Z,8.61
2019-05-15T16:59:06.152Z,8.56
2019-05-15T17:01:42.328Z,8.58
2019-05-15T17:04:18.445Z,8.61
2019-05-15T17:06:54.440Z,8.64
2019-05-15T17:09:30.374Z,8.66
2019-05-15T17:12:08.739Z,8.69
2019-05-15T17:14:43.974Z,8.69
2019-05-15T17:17:19.929Z,8.67
2019-05-15T17:19:57.889Z,8.66
2019-05-15T17:22:33.584Z,8.65
2019-05-15T17:25:10.039Z,8.61
2019-05-15T17:27:46.006Z,8.63
2019-05-15T17:30:22.170Z,8.68
2019-05-15T17:32:58.932Z,8.64
2019-05-15T17:35:34.902Z,8.68
2019-05-15T17:38:10.850Z,8.72
2019-05-15T17:40:48.463Z,8.73
2019-05-15T17:43:24.615Z,8.72
2019-05-15T17:46:00.567Z,8.74
2019-05-15T17:48:38.694Z,8.68
2019-05-15T17:51:14.208Z,8.75
2019-05-15T17:53:51.495Z,8.75
2019-05-15T17:56:28.426Z,8.70
2019-05-15T17:59:04.535Z,8.72
2019-05-15T18:01:40.504Z,8.72
2019-05-15T18:04:18.764Z,8.75
2019-05-15T18:06:54.156Z,8.80
2019-05-15T18:09:30.107Z,8.83
2019-05-15T18:12:10.693Z,8.81
2019-05-15T18:14:43.756Z,8.78
2019-05-15T18:17:19.723Z,8.78
2019-05-15T18:19:57.966Z,8.79
2019-05-15T18:22:33.363Z,8.76
2019-05-15T18:25:10.049Z,8.74
2019-05-15T18:27:48.089Z,8.73
2019-05-15T18:30:23.703Z,8.73
2019-05-15T18:33:00.071Z,8.72
2019-05-15T18:35:38.471Z,8.78
2019-05-15T18:38:14.633Z,8.80
2019-05-15T18:40:50.709Z,8.83
2019-05-15T18:43:28.548Z,8.76
2019-05-15T18:46:04.461Z,8.76
2019-05-15T18:48:40.403Z,8.76
2019-05-15T18:51:17.500Z,8.74
2019-05-15T18:53:53.555Z,8.74
2019-05-15T18:56:30.638Z,8.74
2019-05-15T18:59:08.478Z,8.73
2019-05-15T19:01:44.190Z,8.74
2019-05-15T19:04:20.123Z,8.74
2019-05-15T19:06:58.300Z,8.78
2019-05-15T19:09:34.506Z,8.74
2019-05-15T19:12:10.465Z,8.72
2019-05-15T19:14:49.208Z,8.72
2019-05-15T19:17:24.116Z,8.70
2019-05-15T19:20:00.075Z,8.71
2019-05-15T19:22:40.538Z,8.69
2019-05-15T19:25:13.929Z,8.69
2019-05-15T19:27:49.998Z,8.69
2019-05-15T19:30:28.457Z,8.72
2019-05-15T19:33:03.754Z,8.69
2019-05-15T19:35:40.827Z,8.69
2019-05-15T19:38:18.588Z,8.72
2019-05-15T19:40:54.498Z,8.72
2019-05-15T19:43:31.156Z,8.73
2019-05-15T19:46:07.990Z,8.71
2019-05-15T19:48:44.110Z,8.69
2019-05-15T19:51:20.059Z,8.69
2019-05-15T19:53:58.667Z,8.65
2019-05-15T19:56:35.045Z,8.69
2019-05-15T19:59:10.998Z,8.67
2019-05-15T20:01:48.604Z,8.60
2019-05-15T20:04:24.742Z,8.64
2019-05-15T20:07:00.802Z,8.65
2019-05-15T20:09:38.330Z,8.67
2019-05-15T20:12:14.569Z,8.70
2019-05-15T20:14:51.150Z,8.70
2019-05-15T20:17:27.713Z,8.74
2019-05-15T20:20:04.981Z,8.74
2019-05-15T20:22:42.597Z,8.77
2019-05-15T20:25:18.742Z,8.75
2019-05-15T20:27:54.711Z,8.76
2019-05-15T20:30:30.657Z,8.70
2019-05-15T20:33:08.933Z,8.69
2019-05-15T20:35:44.628Z,8.73
2019-05-15T20:38:20.574Z,8.76
2019-05-15T20:40:59.480Z,8.78
2019-05-15T20:43:34.443Z,8.75
2019-05-15T20:46:10.387Z,8.68
2019-05-15T20:48:48.583Z,8.73
2019-05-15T20:51:24.045Z,8.71
2019-05-15T20:53:59.998Z,8.74
2019-05-15T20:56:38.289Z,8.74
2019-05-15T20:59:13.651Z,8.74
2019-05-15T21:01:50.799Z,8.78
2019-05-15T21:04:28.088Z,8.77
2019-05-15T21:07:04.296Z,8.78
2019-05-15T21:09:40.448Z,8.73
2019-05-15T21:12:17.939Z,8.74
2019-05-15T21:14:54.110Z,8.73
2019-05-15T21:17:30.069Z,8.73
2019-05-15T21:20:09.048Z,8.74
2019-05-15T21:22:44.224Z,8.71
2019-05-15T21:25:20.178Z,8.73
2019-05-15T21:27:56.134Z,8.76
2019-05-15T21:30:32.101Z,8.78
2019-05-15T21:33:08.669Z,8.77
2019-05-15T21:35:44.823Z,8.78
2019-05-15T21:38:21.334Z,8.81
2019-05-15T21:40:58.633Z,8.90
2019-05-15T21:43:34.843Z,8.94
2019-05-15T21:46:10.800Z,8.92
2019-05-15T21:48:48.710Z,8.91
2019-05-15T21:51:24.461Z,8.86
2019-05-15T21:54:01.181Z,8.78
2019-05-15T21:56:38.600Z,8.79
2019-05-15T21:59:14.790Z,8.79
2019-05-15T22:01:50.856Z,8.83
2019-05-15T22:04:28.122Z,8.81
2019-05-15T22:07:08.851Z,8.87
2019-05-15T22:09:43.837Z,8.90
2019-05-15T22:12:21.024Z,8.88
2019-05-15T22:14:58.096Z,8.84
2019-05-15T22:17:34.274Z,8.93
2019-05-15T22:20:10.623Z,8.90
2019-05-15T22:22:50.387Z,8.94
2019-05-15T22:25:23.459Z,8.92
2019-05-15T22:27:59.426Z,8.92
2019-05-15T22:30:35.583Z,8.91
2019-05-15T22:33:11.955Z,8.90
2019-05-15T22:35:48.839Z,8.95
2019-05-15T22:38:28.393Z,8.97
2019-05-15T22:41:03.906Z,9.02
2019-05-15T22:43:39.861Z,9.03
2019-05-15T22:46:18.435Z,9.01
2019-05-15T22:48:53.414Z,9.04
2019-05-15T22:51:29.993Z,9.05
2019-05-15T22:54:08.488Z,9.04
2019-05-15T22:56:45.083Z,9.07
2019-05-15T22:59:21.027Z,9.06
2019-05-15T23:01:58.161Z,9.06
2019-05-15T23:04:34.271Z,9.03
2019-05-15T23:07:10.341Z,9.07
2019-05-15T23:09:51.257Z,9.07
2019-05-15T23:12:28.708Z,9.04
2019-05-15T23:15:05.403Z,9.05
2019-05-15T23:17:48.736Z,9.07
2019-05-15T23:20:25.791Z,9.04
2019-05-15T23:23:01.735Z,9.03
2019-05-15T23:25:38.102Z,9.07
2019-05-15T23:28:14.262Z,9.11
2019-05-15T23:30:50.218Z,9.13
2019-05-15T23:33:28.105Z,9.17
2019-05-15T23:36:03.874Z,9.20
2019-05-15T23:38:39.839Z,9.17
2019-05-15T23:41:15.888Z,9.24
2019-05-15T23:43:51.841Z,9.24
2019-05-15T23:46:28.832Z,9.20
2019-05-15T23:49:05.003Z,9.15
2019-05-15T23:54:15.055Z,9.18
2019-05-15T23:56:51.029Z,9.20
2019-05-15T23:59:28.197Z,9.25
